Terminal Aerodrome Forecast
Issued by NWS

Home | Current Version | Previous Version | Text Only | Print | Product List | Glossary On
Versions: 1 2 3 4 5 6 7 8 9 10 11 12 13 14 15
126
FTUS44 KTSA 280520
TAFMLC
TAF
KMLC 280520Z 2806/2906 00000KT P6SM BKN250
      TEMPO 2809/2813 4SM BR
     FM281500 VRB03KT P6SM SCT100 BKN250
     FM281900 22005KT P6SM SCT040 SCT250=

USA.gov is the U.S. government's official web portal to all federal, state and local government web resources and services.